Time;durP1;ratioP1;P1;durP2;ratioP2;P2;SDS_P1;SDS_P2;PMS_P1;PMS_P2;Temp;Humidity;BMP_temperature;BMP_pressure;BME280_temperature;BME280_humidity;BME280_pressure;Samples;Min_cycle;Max_cycle;Signal;HPM_P1;HPM_P2
2022/01/08 00:04:52;;;;;;;2.25;0.70;;;6.70;99.90;;;;;;4988227;28;20131;-83
2022/01/08 00:11:52;;;;;;;0.20;0.20;;;8.40;99.90;;;;;;4877540;29;20125;-84
2022/01/08 00:21:45;;;;;;;1.27;0.70;;;8.40;99.90;;;;;;4811278;29;20568;-84
2022/01/08 00:24:52;;;;;;;;;;;;;;;;;;;;;
2022/01/08 00:59:21;;;;;;;;;;;;;;;;;;;;;
2022/01/08 01:02:54;;;;;;;;;;;;;;;;;;;;;
2022/01/08 01:06:02;;;;;;;2.75;2.08;;;6.50;99.90;;;;;;4978800;28;43583;-83
2022/01/08 01:09:35;;;;;;;1.33;0.60;;;6.70;99.90;;;;;;4979171;28;20046;-83
2022/01/08 01:16:51;;;;;;;2.42;0.82;;;6.60;99.90;;;;;;4967875;28;21518;-83
2022/01/08 01:20:10;;;;;;;;;;;;;;;;;;;;;
2022/01/08 01:23:24;;;;;;;2.20;0.82;;;6.10;99.90;;;;;;4915780;28;42748;-83
2022/01/08 01:26:45;;;;;;;;;;;;;;;;;;;;;
2022/01/08 01:47:19;;;;;;;;;;;;;;;;;;;;;
2022/01/08 02:08:14;;;;;;;2.60;1.17;;;6.00;99.90;;;;;;4900795;29;20048;-83
2022/01/08 02:18:52;;;;;;;;;;;;;;;;;;;;;
2022/01/08 02:22:15;;;;;;;2.42;0.77;;;5.90;99.90;;;;;;4946235;28;40844;-83
2022/01/08 02:46:23;;;;;;;;;;;;;;;;;;;;;
2022/01/08 02:49:42;;;;;;;2.22;0.80;;;6.40;99.90;;;;;;4913385;28;39250;-83
2022/01/08 02:56:25;;;;;;;0.40;0.40;;;7.20;99.90;;;;;;4837372;29;20080;-83
2022/01/08 03:06:48;;;;;;;1.65;0.68;;;6.60;99.90;;;;;;4911044;28;20131;-83
2022/01/08 03:09:54;;;;;;;;;;;;;;;;;;;;;
2022/01/08 03:16:11;;;;;;;4.72;0.80;;;6.70;99.90;;;;;;5028895;28;20156;-83
2022/01/08 03:19:29;;;;;;;0.50;0.50;;;7.10;99.90;;;;;;5022206;28;20140;-83
2022/01/08 03:22:46;;;;;;;1.52;0.65;;;7.10;99.90;;;;;;5014340;28;20103;-83
2022/01/08 03:25:35;;;;;;;2.85;0.88;;;6.40;99.90;;;;;;5018551;28;20045;-83
2022/01/08 03:28:41;;;;;;;0.68;0.68;;;6.60;99.90;;;;;;5005865;28;20058;-83
2022/01/08 03:32:08;;;;;;;2.97;0.70;;;6.80;99.90;;;;;;4953808;28;20118;-83
2022/01/08 03:38:15;;;;;;;;;;;;;;;;;;;;;
2022/01/08 03:57:14;;;;;;;1.98;0.88;;;6.60;99.90;;;;;;5109652;27;20474;-82
2022/01/08 03:59:40;;;;;;;1.63;0.70;;;6.50;99.90;;;;;;5114644;27;20148;-83
2022/01/08 04:02:06;;;;;;;2.55;0.50;;;6.60;99.90;;;;;;5107105;27;20044;-82
2022/01/08 04:04:32;;;;;;;3.50;0.60;;;6.60;99.90;;;;;;5115684;27;20039;-83
2022/01/08 04:06:57;;;;;;;0.73;0.45;;;6.60;99.90;;;;;;5114512;27;20032;-83
2022/01/08 04:09:23;;;;;;;0.95;0.68;;;6.60;99.90;;;;;;5113756;27;20456;-83
2022/01/08 04:11:50;;;;;;;0.88;0.55;;;6.60;99.90;;;;;;5112298;27;20066;-83
2022/01/08 04:14:17;;;;;;;0.70;0.60;;;6.70;99.90;;;;;;5110862;27;20044;-83
2022/01/08 04:16:47;;;;;;;0.43;0.40;;;6.70;99.90;;;;;;5114922;27;20082;-83
2022/01/08 04:19:13;;;;;;;7.05;0.90;;;6.70;99.90;;;;;;5115599;27;20082;-83
2022/01/08 04:24:23;;;;;;;0.60;0.60;;;6.70;99.90;;;;;;5117675;27;20051;-83
2022/01/08 04:26:49;;;;;;;2.03;1.02;;;6.70;99.90;;;;;;5115533;27;20051;-82
2022/01/08 04:29:15;;;;;;;0.73;0.73;;;6.70;99.90;;;;;;5110737;27;20101;-82
2022/01/08 04:31:41;;;;;;;2.83;0.50;;;6.70;99.90;;;;;;5109555;27;20048;-82
2022/01/08 04:34:07;;;;;;;1.98;1.00;;;6.70;99.90;;;;;;5116385;27;20152;-82
2022/01/08 04:36:32;;;;;;;1.88;0.47;;;6.70;99.90;;;;;;5115184;27;20039;-82
2022/01/08 04:38:58;;;;;;;1.67;0.65;;;6.70;99.90;;;;;;5107248;27;20058;-83
2022/01/08 04:41:24;;;;;;;0.50;0.50;;;6.60;99.90;;;;;;5112159;27;20054;-82
2022/01/08 04:43:50;;;;;;;2.25;0.70;;;6.60;99.90;;;;;;5109049;27;20040;-82
2022/01/08 04:46:15;;;;;;;1.42;0.85;;;6.60;99.90;;;;;;5110094;27;20154;-82
2022/01/08 04:48:41;;;;;;;1.20;0.50;;;6.90;99.90;;;;;;5109934;27;20088;-82
2022/01/08 04:51:07;;;;;;;3.63;0.80;;;6.60;99.90;;;;;;5112895;27;20043;-82
2022/01/08 04:53:33;;;;;;;5.25;1.30;;;6.60;99.90;;;;;;5112553;27;20048;-82
2022/01/08 04:55:59;;;;;;;1.98;0.65;;;6.70;99.90;;;;;;5109791;27;20081;-82
2022/01/08 04:58:25;;;;;;;11.90;1.30;;;6.70;99.90;;;;;;5099739;27;20094;-83
2022/01/08 05:00:51;;;;;;;2.97;0.82;;;6.70;99.90;;;;;;5097163;27;20811;-83
2022/01/08 05:03:17;;;;;;;4.13;0.47;;;6.70;99.90;;;;;;5090189;27;20052;-83
2022/01/08 05:05:43;;;;;;;0.43;0.40;;;6.70;99.90;;;;;;5098062;27;20702;-83
2022/01/08 05:08:08;;;;;;;1.73;0.90;;;6.60;99.90;;;;;;5099313;27;20578;-82
2022/01/08 05:10:34;;;;;;;1.77;0.80;;;6.60;99.90;;;;;;5098018;27;20132;-84
2022/01/08 05:13:04;;;;;;;0.30;0.30;;;6.60;99.90;;;;;;5098940;27;20044;-83
2022/01/08 05:15:31;;;;;;;1.00;0.68;;;6.60;99.90;;;;;;5096891;27;20040;-83
2022/01/08 05:17:56;;;;;;;1.25;0.50;;;6.60;99.90;;;;;;5100812;27;20554;-82
2022/01/08 05:20:22;;;;;;;0.73;0.70;;;6.60;99.90;;;;;;5100082;27;20036;-83
2022/01/08 05:25:15;;;;;;;3.08;1.23;;;6.70;99.90;;;;;;5095811;27;20048;-83
2022/01/08 05:27:40;;;;;;;1.90;0.90;;;6.70;99.90;;;;;;5126892;27;20051;-83
2022/01/08 05:30:07;;;;;;;6.13;0.82;;;6.80;99.90;;;;;;5096242;27;20503;-82
2022/01/08 05:32:34;;;;;;;1.35;0.85;;;6.80;99.90;;;;;;5099424;27;20115;-83
2022/01/08 05:35:00;;;;;;;1.17;0.85;;;6.80;99.90;;;;;;5097617;27;20047;-83
2022/01/08 05:37:25;;;;;;;2.65;0.95;;;6.80;99.90;;;;;;5099472;27;20148;-83
2022/01/08 05:39:51;;;;;;;8.45;1.20;;;6.90;99.90;;;;;;5093427;27;20205;-83
2022/01/08 05:42:18;;;;;;;5.03;0.98;;;6.90;99.90;;;;;;5096541;27;20048;-82
2022/01/08 05:44:44;;;;;;;6.10;1.00;;;6.80;99.90;;;;;;5099618;27;20040;-82
2022/01/08 05:47:10;;;;;;;2.17;1.23;;;6.90;99.90;;;;;;5102090;27;20043;-82
2022/01/08 05:49:36;;;;;;;5.20;1.20;;;6.80;99.90;;;;;;5095659;27;20120;-83
2022/01/08 05:52:02;;;;;;;5.10;1.42;;;6.70;99.90;;;;;;5096830;27;20551;-82
2022/01/08 05:54:27;;;;;;;2.17;1.25;;;6.70;99.90;;;;;;5095051;27;20040;-82
2022/01/08 05:56:53;;;;;;;4.45;1.25;;;6.70;99.90;;;;;;5097464;27;20582;-83
2022/01/08 05:59:21;;;;;;;4.57;1.15;;;6.70;99.90;;;;;;5099450;27;20043;-82
2022/01/08 06:01:47;;;;;;;2.00;1.02;;;6.70;99.90;;;;;;5097587;27;20926;-82
2022/01/08 06:04:13;;;;;;;3.05;1.10;;;6.70;99.90;;;;;;5102510;27;20036;-82
2022/01/08 06:06:40;;;;;;;4.88;1.30;;;6.80;99.90;;;;;;5100425;27;20595;-82
2022/01/08 06:09:07;;;;;;;2.03;1.20;;;6.80;99.90;;;;;;5097685;27;20037;-82
2022/01/08 06:11:33;;;;;;;5.05;1.38;;;6.90;99.90;;;;;;5102410;27;20052;-82
2022/01/08 06:13:59;;;;;;;5.30;1.88;;;6.90;99.90;;;;;;5101268;27;20032;-83
2022/01/08 06:16:25;;;;;;;3.10;1.20;;;6.90;99.90;;;;;;5101676;27;20040;-82
2022/01/08 06:18:50;;;;;;;5.43;2.13;;;6.90;99.90;;;;;;5097108;27;20127;-83
2022/01/08 06:21:16;;;;;;;1.95;1.42;;;6.90;99.90;;;;;;5103796;27;20048;-83
2022/01/08 06:23:42;;;;;;;3.97;2.33;;;6.90;99.90;;;;;;5097415;27;20365;-83
2022/01/08 06:26:09;;;;;;;7.40;2.10;;;6.90;99.90;;;;;;5101602;27;20071;-83
2022/01/08 06:28:35;;;;;;;7.72;2.65;;;6.90;99.90;;;;;;5098574;27;20052;-83
2022/01/08 06:31:01;;;;;;;5.55;3.08;;;6.90;99.90;;;;;;5097220;27;20039;-83
2022/01/08 06:33:27;;;;;;;3.08;1.67;;;7.00;99.90;;;;;;5096283;27;20040;-83
2022/01/08 06:35:52;;;;;;;6.65;2.17;;;7.00;99.90;;;;;;5093601;27;20044;-83
2022/01/08 06:38:19;;;;;;;3.38;0.95;;;7.00;99.90;;;;;;5099662;27;20503;-82
2022/01/08 06:40:45;;;;;;;4.30;1.40;;;7.00;99.90;;;;;;5100892;27;20822;-83
2022/01/08 06:43:11;;;;;;;2.58;1.35;;;7.00;99.90;;;;;;5098141;27;20044;-83
2022/01/08 06:45:37;;;;;;;4.53;1.38;;;7.00;99.90;;;;;;5104021;27;20093;-83
2022/01/08 06:48:03;;;;;;;6.70;2.53;;;7.00;99.90;;;;;;5095472;27;20040;-83
2022/01/08 06:50:28;;;;;;;1.65;1.23;;;7.10;99.90;;;;;;5105915;27;20048;-83
2022/01/08 06:52:55;;;;;;;5.80;1.10;;;7.10;99.90;;;;;;5100255;27;20520;-83
2022/01/08 06:55:21;;;;;;;3.05;1.60;;;7.10;99.90;;;;;;5096414;27;21621;-83
2022/01/08 06:57:47;;;;;;;2.75;1.40;;;7.20;99.90;;;;;;5093861;27;20507;-83
2022/01/08 07:00:13;;;;;;;3.80;1.42;;;7.20;99.90;;;;;;5098142;27;20044;-82
2022/01/08 07:02:39;;;;;;;3.75;1.67;;;7.20;99.90;;;;;;5098142;27;20044;-83
2022/01/08 07:05:05;;;;;;;4.90;1.90;;;7.20;99.90;;;;;;5093778;27;20035;-83
2022/01/08 07:07:31;;;;;;;3.17;1.30;;;7.20;99.90;;;;;;5096004;27;20128;-83
2022/01/08 07:09:57;;;;;;;6.05;1.63;;;7.20;99.90;;;;;;5097094;27;20046;-82
2022/01/08 07:12:22;;;;;;;7.72;1.77;;;7.20;99.90;;;;;;5092465;27;20119;-83
2022/01/08 07:14:48;;;;;;;2.92;1.55;;;7.20;99.90;;;;;;5129568;27;20410;-83
2022/01/08 07:17:14;;;;;;;7.75;1.65;;;7.20;99.90;;;;;;5098439;27;20071;-83
2022/01/08 07:19:40;;;;;;;5.22;1.88;;;7.20;99.90;;;;;;5096382;27;20044;-82
2022/01/08 07:22:05;;;;;;;2.85;1.63;;;7.30;99.90;;;;;;5096820;27;20044;-82
2022/01/08 07:24:31;;;;;;;3.28;1.23;;;7.20;99.90;;;;;;5093486;27;20043;-83
2022/01/08 07:26:57;;;;;;;3.75;1.13;;;7.30;99.90;;;;;;5094673;27;21129;-80
2022/01/08 07:29:23;;;;;;;1.75;1.10;;;7.30;99.90;;;;;;5094694;27;20044;-80
2022/01/08 07:31:48;;;;;;;3.00;1.55;;;7.60;99.90;;;;;;5089252;27;20113;-79
2022/01/08 07:34:14;;;;;;;4.22;1.48;;;7.30;99.90;;;;;;5094435;27;20040;-80
2022/01/08 07:36:40;;;;;;;8.20;1.58;;;7.30;99.90;;;;;;5097077;27;20052;-81
2022/01/08 07:39:06;;;;;;;6.60;1.45;;;7.30;99.90;;;;;;5091807;27;20098;-80
2022/01/08 07:41:31;;;;;;;1.58;1.10;;;7.30;99.90;;;;;;5095169;27;20041;-80
2022/01/08 07:43:57;;;;;;;1.80;1.23;;;7.40;99.90;;;;;;5095998;27;20109;-80
2022/01/08 07:46:23;;;;;;;2.47;1.00;;;7.40;99.90;;;;;;5091675;27;20044;-80
2022/01/08 07:48:48;;;;;;;3.95;1.30;;;7.40;99.90;;;;;;5092590;27;20056;-80
2022/01/08 07:51:14;;;;;;;6.68;2.00;;;7.40;99.90;;;;;;5097406;27;20526;-80
2022/01/08 07:53:40;;;;;;;3.67;1.40;;;7.40;99.90;;;;;;5096846;27;20422;-80
2022/01/08 07:56:05;;;;;;;3.70;1.35;;;7.40;99.90;;;;;;5095051;27;20060;-79
2022/01/08 07:58:31;;;;;;;2.83;1.80;;;7.50;99.90;;;;;;5096238;27;20056;-80
2022/01/08 08:00:58;;;;;;;1.92;1.30;;;7.50;99.90;;;;;;5129100;27;20039;-80
2022/01/08 08:03:24;;;;;;;3.08;1.50;;;7.50;99.90;;;;;;5097602;27;20054;-80
2022/01/08 08:05:50;;;;;;;8.82;2.45;;;7.50;99.90;;;;;;5097523;27;20046;-80
2022/01/08 08:08:16;;;;;;;11.77;2.78;;;7.60;99.90;;;;;;5097172;27;20072;-80
2022/01/08 08:10:43;;;;;;;5.25;2.42;;;7.60;99.90;;;;;;5092691;27;20037;-80
2022/01/08 08:13:08;;;;;;;4.50;2.05;;;7.60;99.90;;;;;;5091633;27;20594;-80
2022/01/08 08:15:34;;;;;;;6.13;1.50;;;7.60;99.90;;;;;;5088652;27;20123;-80
2022/01/08 08:18:00;;;;;;;6.43;2.03;;;7.70;99.90;;;;;;5091399;27;20044;-79
2022/01/08 08:20:25;;;;;;;3.65;1.80;;;7.70;99.90;;;;;;5090639;27;20127;-80
2022/01/08 08:22:51;;;;;;;6.22;1.83;;;7.70;99.90;;;;;;5096400;27;20067;-79
2022/01/08 08:25:17;;;;;;;9.77;2.40;;;7.70;99.90;;;;;;5096599;27;20123;-80
2022/01/08 08:27:43;;;;;;;10.45;1.70;;;7.70;99.90;;;;;;5096038;27;20044;-80
2022/01/08 08:30:10;;;;;;;10.55;2.30;;;7.80;99.90;;;;;;5095544;27;20041;-81
2022/01/08 08:32:37;;;;;;;12.93;3.13;;;7.80;99.90;;;;;;5096218;27;20133;-80
2022/01/08 08:35:03;;;;;;;7.40;1.85;;;7.90;99.90;;;;;;5097766;27;20426;-80
2022/01/08 08:37:29;;;;;;;4.30;2.58;;;7.90;99.90;;;;;;5104171;27;20043;-80
2022/01/08 08:39:55;;;;;;;7.70;2.10;;;7.90;99.90;;;;;;5095556;27;20044;-80
2022/01/08 08:42:21;;;;;;;8.32;2.58;;;7.90;99.90;;;;;;5100029;27;20036;-80
2022/01/08 08:44:47;;;;;;;11.00;1.88;;;8.00;99.90;;;;;;5093258;27;20067;-79
2022/01/08 08:47:13;;;;;;;10.73;2.70;;;8.00;99.90;;;;;;5094409;27;20064;-80
2022/01/08 08:49:38;;;;;;;10.55;2.88;;;8.00;99.90;;;;;;5095749;27;20059;-81
2022/01/08 08:52:04;;;;;;;6.65;2.72;;;8.00;99.90;;;;;;5092072;27;20039;-80
2022/01/08 08:54:30;;;;;;;9.43;2.47;;;8.10;99.90;;;;;;5095111;27;20119;-80
2022/01/08 08:56:56;;;;;;;6.70;1.95;;;8.20;99.90;;;;;;5090814;27;20139;-80
2022/01/08 08:59:23;;;;;;;9.40;2.72;;;8.20;99.90;;;;;;5094290;27;20182;-80
2022/01/08 09:01:50;;;;;;;5.00;2.33;;;8.30;99.90;;;;;;5093206;27;20043;-81
2022/01/08 09:04:15;;;;;;;7.43;2.75;;;8.30;99.90;;;;;;5097465;27;20046;-80
2022/01/08 09:06:41;;;;;;;6.18;2.88;;;8.30;99.90;;;;;;5092583;27;20431;-80
2022/01/08 09:09:07;;;;;;;5.20;1.77;;;8.30;99.90;;;;;;5096602;27;20041;-80
2022/01/08 09:11:34;;;;;;;8.27;2.85;;;8.30;99.90;;;;;;5098259;27;20067;-80
2022/01/08 09:14:00;;;;;;;15.75;3.03;;;8.40;99.90;;;;;;5095704;27;20044;-81
2022/01/08 09:16:27;;;;;;;8.98;2.95;;;8.40;99.90;;;;;;5098136;27;20075;-81
2022/01/08 09:18:53;;;;;;;14.20;2.42;;;8.40;99.90;;;;;;5091859;27;20036;-80
2022/01/08 09:21:19;;;;;;;3.97;2.47;;;8.40;99.90;;;;;;5099347;27;20532;-80
2022/01/08 09:23:44;;;;;;;8.73;3.08;;;8.40;99.90;;;;;;5098309;27;20829;-84
2022/01/08 09:26:10;;;;;;;7.78;2.28;;;8.40;99.90;;;;;;5097488;27;20048;-80
2022/01/08 09:28:36;;;;;;;10.52;2.03;;;8.50;99.90;;;;;;5100049;27;20040;-80
2022/01/08 09:31:03;;;;;;;6.18;3.05;;;8.50;99.90;;;;;;5097733;27;20040;-80
2022/01/08 09:33:29;;;;;;;8.50;2.30;;;8.50;99.90;;;;;;5101465;27;20390;-80
2022/01/08 09:35:55;;;;;;;6.13;3.05;;;8.60;99.90;;;;;;5100753;27;20044;-80
2022/01/08 09:38:21;;;;;;;8.07;2.80;;;8.60;99.90;;;;;;5097457;27;20033;-80
2022/01/08 09:40:47;;;;;;;9.95;2.70;;;8.70;99.90;;;;;;5093338;27;20092;-80
2022/01/08 09:43:13;;;;;;;8.45;2.42;;;8.70;99.90;;;;;;5092338;27;20051;-80
2022/01/08 09:45:39;;;;;;;17.25;3.22;;;8.70;99.90;;;;;;5094510;27;20135;-80
2022/01/08 09:48:05;;;;;;;5.05;1.85;;;8.70;99.90;;;;;;5090552;27;20059;-80
2022/01/08 09:50:31;;;;;;;8.35;2.15;;;8.70;99.90;;;;;;5095867;27;20438;-80
2022/01/08 09:52:58;;;;;;;11.18;2.58;;;8.60;99.90;;;;;;5089624;27;20047;-80
2022/01/08 09:55:28;;;;;;;5.93;2.83;;;8.60;99.90;;;;;;5094399;27;20498;-80
2022/01/08 09:57:55;;;;;;;9.65;2.42;;;8.60;99.90;;;;;;5091538;27;20036;-80
2022/01/08 10:00:21;;;;;;;10.57;2.80;;;8.60;99.90;;;;;;5093528;27;20047;-80
2022/01/08 10:02:46;;;;;;;13.85;3.13;;;8.60;99.90;;;;;;5092656;27;20044;-80
2022/01/08 10:05:15;;;;;;;2.75;1.42;;;8.60;99.90;;;;;;5092007;27;20045;-80
2022/01/08 10:07:41;;;;;;;6.97;2.33;;;8.60;99.90;;;;;;5088922;27;20070;-80
2022/01/08 10:10:12;;;;;;;7.43;2.13;;;8.70;99.90;;;;;;5103306;27;20044;-80
2022/01/08 10:12:53;;;;;;;5.07;2.22;;;8.70;99.90;;;;;;5102734;27;20040;-80
2022/01/08 10:18:31;;;;;;;7.18;2.28;;;8.70;99.90;;;;;;5096481;27;20755;-80
2022/01/08 10:20:57;;;;;;;12.85;2.22;;;8.70;99.90;;;;;;5095126;27;20533;-80
2022/01/08 10:23:25;;;;;;;5.30;1.80;;;8.70;99.90;;;;;;5094967;27;20503;-81
2022/01/08 10:26:03;;;;;;;15.90;3.25;;;8.70;99.90;;;;;;5097799;27;20051;-79
2022/01/08 10:28:44;;;;;;;12.20;2.30;;;8.70;99.90;;;;;;5096449;27;20922;-80
2022/01/08 10:31:17;;;;;;;9.60;2.28;;;8.70;99.90;;;;;;5095665;27;20075;-81
2022/01/08 10:33:54;;;;;;;12.80;2.67;;;8.70;99.90;;;;;;5092494;27;20039;-80
2022/01/08 10:36:30;;;;;;;7.68;2.22;;;8.70;99.90;;;;;;5089170;27;20294;-81
2022/01/08 10:38:59;;;;;;;5.60;1.75;;;8.70;99.90;;;;;;5093972;27;20056;-88
2022/01/08 10:41:26;;;;;;;16.75;3.92;;;8.80;99.90;;;;;;5108500;27;20044;-88
2022/01/08 10:44:15;;;;;;;3.85;1.80;;;8.80;99.90;;;;;;5102674;27;20044;-91
2022/01/08 10:46:59;;;;;;;7.47;1.75;;;8.80;99.90;;;;;;5113145;27;20025;-96
2022/01/08 10:49:33;;;;;;;12.90;2.78;;;8.90;99.90;;;;;;5114540;27;20036;-95
2022/01/08 10:52:04;;;;;;;14.77;2.83;;;8.90;99.90;;;;;;5111983;27;20048;-91
2022/01/08 10:54:33;;;;;;;6.60;2.78;;;8.90;99.90;;;;;;5108669;27;20067;-91
2022/01/08 10:57:01;;;;;;;17.88;3.10;;;8.90;99.90;;;;;;5108209;27;20056;-91
2022/01/08 10:59:29;;;;;;;8.82;2.42;;;9.00;99.90;;;;;;5131834;27;20043;-96
2022/01/08 11:02:03;;;;;;;8.38;2.20;;;9.00;99.90;;;;;;5106851;27;20036;-93
2022/01/08 11:04:36;;;;;;;9.50;2.00;;;9.00;99.90;;;;;;5115783;27;20117;-95
2022/01/08 11:07:08;;;;;;;5.65;1.77;;;9.00;99.90;;;;;;5106316;27;20100;-89
2022/01/08 11:09:36;;;;;;;12.50;2.67;;;9.00;99.90;;;;;;5110815;27;20047;-96
2022/01/08 11:12:05;;;;;;;12.98;2.88;;;9.00;99.90;;;;;;5108255;27;20098;-95
2022/01/08 11:14:47;;;;;;;1.58;0.80;;;9.00;99.90;;;;;;5112138;27;20038;-94
2022/01/08 11:17:20;;;;;;;0.73;0.60;;;9.10;99.90;;;;;;5101163;27;20043;-94
2022/01/08 11:19:52;;;;;;;8.50;2.10;;;9.10;99.90;;;;;;5103567;27;20044;-95
2022/01/08 11:22:22;;;;;;;;;;;9.00;99.90;;;;;;5108544;27;20039;-95
2022/01/08 11:24:58;;;;;;;11.02;1.98;;;9.00;99.90;;;;;;5119305;27;20971;-95
2022/01/08 11:28:08;;;;;;;9.25;1.98;;;9.00;99.90;;;;;;5106417;27;20124;-96
2022/01/08 11:30:38;;;;;;;10.48;2.67;;;8.90;99.90;;;;;;5088926;27;20111;-96
2022/01/08 11:33:11;;;;;;;10.02;2.63;;;8.90;99.90;;;;;;5107237;27;20040;-96
2022/01/08 11:35:38;;;;;;;3.83;2.13;;;8.90;99.90;;;;;;5106975;27;20110;-93
2022/01/08 11:38:07;;;;;;;11.30;3.85;;;8.90;99.90;;;;;;5109958;27;20040;-95
2022/01/08 11:40:36;;;;;;;9.65;3.03;;;8.90;99.90;;;;;;5103631;27;20047;-95
2022/01/08 11:43:04;;;;;;;4.47;1.63;;;8.90;99.90;;;;;;5100729;27;20040;-96
2022/01/08 11:45:52;;;;;;;8.02;2.25;;;8.90;99.90;;;;;;5105571;27;20051;-93
2022/01/08 11:48:30;;;;;;;8.57;2.75;;;8.90;99.90;;;;;;5107509;27;20115;-95
2022/01/08 11:50:59;;;;;;;8.25;2.50;;;8.90;99.90;;;;;;5112966;27;20043;-93
2022/01/08 11:53:30;;;;;;;4.50;2.25;;;8.90;99.90;;;;;;5120363;27;20039;-94
2022/01/08 11:56:01;;;;;;;4.57;2.40;;;8.90;99.90;;;;;;5115948;27;20048;-93
2022/01/08 11:58:30;;;;;;;11.95;3.38;;;8.90;99.90;;;;;;5113046;27;20048;-94
2022/01/08 12:01:06;;;;;;;7.13;2.88;;;8.90;99.90;;;;;;5116345;27;20948;-95
2022/01/08 12:03:49;;;;;;;8.00;2.40;;;8.90;99.90;;;;;;5143903;27;20032;-91
2022/01/08 12:06:29;;;;;;;6.45;2.10;;;8.90;99.90;;;;;;5116131;27;20040;-94
2022/01/08 12:09:19;;;;;;;3.22;2.03;;;8.90;99.90;;;;;;5112385;27;20366;-93
2022/01/08 12:11:44;;;;;;;2.15;1.42;;;8.90;99.90;;;;;;5115515;27;20048;-95
2022/01/08 12:14:15;;;;;;;10.93;1.85;;;8.90;99.90;;;;;;5118096;27;20515;-94
2022/01/08 12:16:43;;;;;;;3.40;1.95;;;8.90;99.90;;;;;;5113271;27;20043;-94
2022/01/08 12:19:26;;;;;;;7.95;2.53;;;8.90;99.90;;;;;;5113486;27;20145;-93
2022/01/08 12:21:52;;;;;;;7.53;2.25;;;8.90;99.90;;;;;;5106317;27;20036;-89
2022/01/08 12:24:27;;;;;;;8.40;2.58;;;8.90;99.90;;;;;;5104308;27;20032;-93
2022/01/08 12:26:55;;;;;;;11.75;1.65;;;8.90;99.90;;;;;;5112471;27;20526;-81
2022/01/08 12:29:39;;;;;;;9.05;2.00;;;9.00;99.90;;;;;;5112476;27;20041;-91
2022/01/08 12:32:34;;;;;;;10.20;1.90;;;9.00;99.90;;;;;;5108128;27;20040;-93
2022/01/08 12:35:26;;;;;;;6.85;2.17;;;9.00;99.90;;;;;;5119326;27;20047;-95
2022/01/08 12:38:00;;;;;;;8.05;1.67;;;9.00;99.90;;;;;;5104446;27;20084;-95
2022/01/08 12:40:37;;;;;;;6.18;1.50;;;9.10;99.90;;;;;;5114252;27;20079;-93
2022/01/08 12:43:23;;;;;;;6.93;1.67;;;9.10;99.90;;;;;;5117701;27;20027;-95
2022/01/08 12:46:12;;;;;;;3.20;1.63;;;9.10;99.90;;;;;;5132453;27;20047;-96
2022/01/08 12:48:38;;;;;;;6.85;1.52;;;9.00;99.90;;;;;;5120823;27;20052;-96
2022/01/08 12:51:05;;;;;;;6.38;2.40;;;9.00;99.90;;;;;;5112030;27;20028;-95
2022/01/08 12:53:32;;;;;;;4.97;2.53;;;9.00;99.90;;;;;;5139482;27;20071;-90
2022/01/08 12:55:58;;;;;;;7.25;3.05;;;9.00;99.90;;;;;;5111877;27;20159;-95
2022/01/08 12:58:33;;;;;;;13.73;3.03;;;9.00;99.90;;;;;;5106561;27;20625;-94
2022/01/08 13:01:03;;;;;;;5.13;1.95;;;9.00;99.90;;;;;;5103850;27;20056;-96
2022/01/08 13:03:32;;;;;;;5.95;1.60;;;9.00;99.90;;;;;;5104106;27;20144;-95
2022/01/08 13:06:04;;;;;;;12.90;2.38;;;9.00;99.90;;;;;;5120004;27;20039;-95
2022/01/08 13:08:32;;;;;;;3.50;1.80;;;9.10;99.90;;;;;;5115712;27;20514;-94
2022/01/08 13:11:01;;;;;;;5.47;1.67;;;9.10;99.90;;;;;;5105330;27;20066;-95
2022/01/08 13:13:43;;;;;;;9.63;2.00;;;9.10;99.90;;;;;;5106285;27;20121;-95
2022/01/08 13:16:38;;;;;;;5.38;1.75;;;9.20;99.90;;;;;;5123622;27;20593;-90
2022/01/08 13:19:07;;;;;;;3.13;2.13;;;9.20;99.90;;;;;;5105965;27;20150;-90
2022/01/08 13:21:39;;;;;;;5.30;2.35;;;9.20;99.90;;;;;;5099063;27;20049;-91
2022/01/08 13:24:12;;;;;;;4.78;2.30;;;9.20;99.90;;;;;;5104064;27;20052;-90
2022/01/08 13:26:40;;;;;;;8.55;3.10;;;9.20;99.90;;;;;;5108189;27;20078;-87
2022/01/08 13:29:27;;;;;;;8.23;2.58;;;9.20;99.90;;;;;;5140636;27;20044;-89
2022/01/08 13:31:56;;;;;;;8.68;2.92;;;9.20;99.90;;;;;;5105015;27;20139;-88
2022/01/08 13:34:24;;;;;;;9.85;2.17;;;9.20;99.90;;;;;;5103084;27;20040;-89
2022/01/08 13:37:04;;;;;;;13.82;2.03;;;9.20;99.90;;;;;;5111183;27;20549;-88
2022/01/08 13:39:39;;;;;;;12.27;2.95;;;9.20;99.90;;;;;;5106654;27;20036;-88
2022/01/08 13:42:16;;;;;;;11.52;3.40;;;9.20;99.90;;;;;;5103051;27;20050;-88
2022/01/08 13:44:53;;;;;;;7.30;1.67;;;9.20;99.90;;;;;;5101602;27;20064;-88
2022/01/08 13:47:21;;;;;;;3.25;1.58;;;9.10;99.90;;;;;;5106816;27;20078;-88
2022/01/08 13:49:53;;;;;;;9.98;2.85;;;9.10;99.90;;;;;;5134146;27;20131;-88
2022/01/08 13:52:28;;;;;;;3.17;1.25;;;9.10;99.90;;;;;;5103891;27;20036;-88
2022/01/08 13:55:18;;;;;;;1.95;0.98;;;9.10;99.90;;;;;;5099660;27;20047;-84
2022/01/08 13:58:08;;;;;;;3.17;1.40;;;9.10;99.90;;;;;;5104152;27;20047;-91
2022/01/08 14:00:49;;;;;;;10.05;2.35;;;9.10;99.90;;;;;;5112709;27;20052;-96
2022/01/08 14:03:21;;;;;;;6.93;1.67;;;9.10;99.90;;;;;;5110278;27;20571;-93
2022/01/08 14:05:47;;;;;;;;;;;9.10;99.90;;;;;;5104190;27;20039;-95
2022/01/08 14:08:14;;;;;;;6.28;2.05;;;9.10;99.90;;;;;;5106893;27;19920;-96
2022/01/08 14:10:46;;;;;;;1.67;1.33;;;9.10;99.90;;;;;;5113014;27;20040;-96
2022/01/08 14:13:15;;;;;;;;;;;9.10;99.90;;;;;;5104655;27;20938;-95
2022/01/08 14:15:44;;;;;;;6.45;1.65;;;9.10;99.90;;;;;;5109711;27;19916;-95
2022/01/08 14:18:12;;;;;;;5.43;1.65;;;9.10;99.90;;;;;;5104485;27;20044;-95
2022/01/08 14:20:39;;;;;;;6.82;2.45;;;9.10;99.90;;;;;;5110264;27;20051;-94
2022/01/08 14:23:21;;;;;;;5.78;1.80;;;9.10;99.90;;;;;;5107071;27;20039;-95
2022/01/08 14:25:48;;;;;;;;;;;9.10;99.90;;;;;;5105105;27;20751;-91
2022/01/08 14:28:22;;;;;;;4.25;1.75;;;9.20;99.90;;;;;;5104362;27;19927;-96
2022/01/08 14:30:52;;;;;;;9.45;1.70;;;9.20;99.90;;;;;;5109610;27;20127;-96
2022/01/08 14:33:21;;;;;;;5.32;1.92;;;9.20;99.90;;;;;;5101685;27;20064;-95
2022/01/08 14:35:58;;;;;;;2.85;1.80;;;9.20;99.90;;;;;;5101296;27;20117;-96
2022/01/08 14:38:24;;;;;;;5.03;1.58;;;9.20;99.90;;;;;;5104105;27;20096;-95
2022/01/08 14:40:50;;;;;;;3.40;1.50;;;9.20;99.90;;;;;;5102513;27;20542;-85
2022/01/08 14:43:16;;;;;;;3.70;1.30;;;9.20;99.90;;;;;;5104551;27;20143;-96
2022/01/08 14:45:49;;;;;;;5.47;1.35;;;9.20;99.90;;;;;;5106878;27;20036;-95
2022/01/08 14:48:23;;;;;;;3.05;1.52;;;9.20;99.90;;;;;;5106787;27;20036;-96
2022/01/08 14:50:50;;;;;;;5.10;1.40;;;9.20;99.90;;;;;;5106939;27;20144;-96
2022/01/08 14:53:17;;;;;;;2.35;0.90;;;9.20;99.90;;;;;;5105094;27;20043;-96
2022/01/08 14:55:47;;;;;;;1.90;1.30;;;9.20;99.90;;;;;;5110553;27;20060;-96
2022/01/08 14:58:13;;;;;;;1.02;0.75;;;9.20;99.90;;;;;;5104791;27;20039;-95
2022/01/08 15:00:40;;;;;;;2.47;1.20;;;9.20;99.90;;;;;;5106234;27;20042;-95
2022/01/08 15:03:06;;;;;;;2.67;0.68;;;9.20;99.90;;;;;;5099658;27;20044;-95
2022/01/08 15:06:35;;;;;;;5.20;0.95;;;9.30;99.90;;;;;;5109956;27;20040;-94
2022/01/08 15:09:01;;;;;;;2.40;1.17;;;9.30;99.90;;;;;;5112951;27;20164;-95
2022/01/08 15:11:27;;;;;;;2.40;0.98;;;9.30;99.90;;;;;;5104882;27;20032;-94
2022/01/08 15:13:53;;;;;;;7.38;1.13;;;9.40;99.90;;;;;;5140441;27;20040;-96
2022/01/08 15:16:18;;;;;;;2.55;1.00;;;9.30;99.90;;;;;;5108111;27;20064;-95
2022/01/08 15:18:45;;;;;;;3.38;2.72;;;9.30;99.90;;;;;;5106018;27;20090;-95
2022/01/08 15:21:12;;;;;;;1.80;1.35;;;9.30;99.90;;;;;;5117580;27;20538;-95
2022/01/08 15:23:39;;;;;;;6.93;1.08;;;9.20;99.90;;;;;;5112544;27;20103;-95
2022/01/08 15:26:04;;;;;;;4.63;1.35;;;9.20;99.90;;;;;;5113165;27;21019;-95
2022/01/08 15:28:30;;;;;;;3.70;0.95;;;9.20;99.90;;;;;;5109001;27;20134;-94
2022/01/08 15:30:57;;;;;;;2.95;1.55;;;9.20;99.90;;;;;;5104128;27;20055;-95
2022/01/08 15:33:24;;;;;;;4.60;1.67;;;9.20;99.90;;;;;;5110993;27;20046;-95
2022/01/08 15:35:50;;;;;;;1.67;1.35;;;9.10;99.90;;;;;;5114551;27;20047;-92
2022/01/08 15:38:18;;;;;;;5.60;1.02;;;9.10;99.90;;;;;;5112443;27;20044;-94
2022/01/08 15:40:45;;;;;;;4.28;1.20;;;9.10;99.90;;;;;;5109486;27;20154;-91
2022/01/08 15:43:10;;;;;;;0.65;0.65;;;9.10;99.90;;;;;;5108249;27;20048;-93
2022/01/08 15:45:37;;;;;;;3.72;1.13;;;9.10;99.90;;;;;;5102222;27;20492;-89
2022/01/08 15:48:04;;;;;;;4.07;1.38;;;9.10;99.90;;;;;;5106531;27;20040;-89
2022/01/08 15:50:33;;;;;;;0.73;0.60;;;9.10;99.90;;;;;;5102743;27;20120;-88
2022/01/08 15:52:59;;;;;;;1.17;1.05;;;9.10;99.90;;;;;;5125265;27;20052;-88
2022/01/08 15:55:26;;;;;;;1.98;0.80;;;9.10;99.90;;;;;;5097550;27;20044;-87
2022/01/08 15:57:52;;;;;;;0.50;0.50;;;9.10;99.90;;;;;;5107198;27;21015;-87
2022/01/08 16:00:19;;;;;;;3.22;1.17;;;9.00;99.90;;;;;;5101085;27;20128;-88
2022/01/08 16:02:48;;;;;;;3.85;1.60;;;9.10;99.90;;;;;;5106965;27;20094;-88
2022/01/08 16:05:20;;;;;;;4.65;1.90;;;9.00;99.90;;;;;;5108024;27;20581;-88
2022/01/08 16:07:49;;;;;;;3.05;1.67;;;9.00;99.90;;;;;;5108508;27;20043;-87
2022/01/08 16:10:16;;;;;;;3.50;1.17;;;9.00;99.90;;;;;;5110182;27;20042;-87
2022/01/08 16:12:41;;;;;;;2.58;0.80;;;9.10;99.90;;;;;;5107428;27;20048;-89